Scott City, MO

1:54 PM CDT on July 27, 2016 (GMT -0500)
Cape Girardeau Regional | | Change Station
Active Advisory: Special Statement

Elev 341 ft 37.23 °N, 89.57 °W | Updated 1 hour ago

Clear
Clear
88 °F
Feels Like 96 °F
N
0
Wind Variable Wind from North

Today
High -- | Low -- °F
--% Chance of Precip.
Yesterday
High -- | Low -- °F
Precip. -- in
Pressure 29.96 in
Visibility 10.0 miles
Clouds Clear
Heat Index 96 °F
Dew Point 74 °F
Humidity 63%
Rainfall 0.00 in
Snow Depth Not available.
5:59 AM 8:09 PM
Last Quarter, 40% visible
METAR KCGI 271753Z 00000KT 10SM CLR 31/23 A2997 RMK AO2 SLP144 T03110233 10311 20228 58008
Pressure 29.96 in
Visibility 10.0 miles
Clouds Clear
Heat Index 96 °F
Dew Point 74 °F
Humidity 63%
Rainfall 0.00 in
Snow Depth Not available.
5:59 AM 8:09 PM
Last Quarter, 40% visible
METAR KCGI 271753Z 00000KT 10SM CLR 31/23 A2997 RMK AO2 SLP144 T03110233 10311 20228 58008

10-Day Weather Forecast

Almanac

Astronomy

Jul. 27, 2016 Rise Set
Actual Time
Civil Twilight
Nautical Twilight
Astronomical Twilight
Moon
Length of Visible Light
Length of Day
Tomorrow will be .
, % of the Moon is Illuminated

Today's Extremes

State Highs State Lows

Community

WunderPhotos

Upload Photos

1,927,897 photos uploaded!

WunderBlog® & News

Nearby

Air Quality

  Air Quality AQ Index Pollutant
Not available.

Snow Depth

Station Depth Elevation

Earthquake Activity

City Distance Mag. Time & Date
Minimum magnitude displayed is 2.5.

Coastal Water Temperatures

Place Temperature

Stations

Nearby Weather Stations

Station Location Temp. Windchill Dew Point Humidity Wind Precip. Elev Updated Type
                   

Watches & Warnings

Special Statement
Issued: 1:46 PM CDT Jul. 27, 2016 – National Weather Service

... High levels of humidity resulting in heat index readings above
100 today...

Temperatures in the upper 80s to lower 90s combined with
dewpoints in the middle to upper 70s will produce heat index
readings of 100 to 105 this afternoon into the early evening hours.
Isolated showers and thunderstorms may provide temporary relief
for some communities this afternoon.


146 PM CDT Wed Jul 27 2016

... High levels of humidity resulting in heat index readings above
100 today...

Temperatures in the upper 80s to lower 90s combined with
dewpoints in the middle to upper 70s will produce heat index
readings of 100 to 105 this afternoon into the early evening hours.
Isolated showers and thunderstorms may provide temporary relief
for some communities this afternoon.